Time;durP1;ratioP1;P1;durP2;ratioP2;P2;SDS_P1;SDS_P2;PMS_P1;PMS_P2;Temp;Humidity;BMP_temperature;BMP_pressure;BME280_temperature;BME280_humidity;BME280_pressure;Samples;Min_cycle;Max_cycle;Signal;HPM_P1;HPM_P2
2021/05/04 00:01:49;;;;;;;7.77;7.07;;;;;;;3.57;84.31;97761.66;5038282;28;20208;-68
2021/05/04 00:04:16;;;;;;;6.93;6.37;;;;;;;3.50;82.99;97755.25;5038482;28;20223;-69
2021/05/04 00:06:43;;;;;;;7.63;7.03;;;;;;;3.64;83.04;97748.88;5038621;28;20212;-69
2021/05/04 00:09:10;;;;;;;7.90;7.10;;;;;;;3.53;83.39;97743.66;5039123;28;21023;-68
2021/05/04 00:11:37;;;;;;;8.20;7.50;;;;;;;3.44;83.85;97735.63;5039192;28;20212;-69
2021/05/04 00:14:04;;;;;;;7.80;7.20;;;;;;;3.51;83.44;97733.34;5038604;28;20228;-69
2021/05/04 00:16:32;;;;;;;7.23;6.70;;;;;;;3.30;84.03;97728.06;5040845;28;20204;-68
2021/05/04 00:18:59;;;;;;;7.70;7.10;;;;;;;3.24;85.39;97721.53;5042307;28;20200;-68
2021/05/04 00:21:26;;;;;;;7.30;6.70;;;;;;;3.14;84.97;97718.81;5042969;28;20212;-68
2021/05/04 00:23:53;;;;;;;7.43;6.90;;;;;;;3.24;85.18;97713.66;5043999;28;20285;-68
2021/05/04 00:26:20;;;;;;;7.20;6.60;;;;;;;3.26;84.52;97706.50;5037781;28;20204;-68
2021/05/04 00:28:47;;;;;;;6.90;6.43;;;;;;;3.23;84.41;97698.09;5042661;28;20493;-69
2021/05/04 00:31:14;;;;;;;8.43;7.60;;;;;;;3.32;84.45;97699.94;5042198;28;20235;-68
2021/05/04 00:33:42;;;;;;;7.07;6.57;;;;;;;3.31;84.35;97699.09;5039478;28;20250;-68
2021/05/04 00:36:09;;;;;;;8.23;7.60;;;;;;;3.27;84.47;97696.88;5042668;28;20210;-68
2021/05/04 00:38:36;;;;;;;8.17;7.10;;;;;;;3.30;83.87;97686.97;5042490;28;20220;-68
2021/05/04 00:41:03;;;;;;;7.23;6.73;;;;;;;3.28;84.56;97693.31;5042766;28;20204;-68
2021/05/04 00:43:31;;;;;;;7.73;7.07;;;;;;;3.27;84.03;97694.25;5040885;28;20223;-68
2021/05/04 00:45:58;;;;;;;7.53;6.93;;;;;;;3.25;84.33;97688.31;5042278;28;20241;-68
2021/05/04 00:48:26;;;;;;;7.37;6.77;;;;;;;3.14;85.34;97679.53;5041912;28;20211;-68
2021/05/04 00:50:54;;;;;;;8.13;7.43;;;;;;;3.26;84.46;97680.31;5040692;28;20235;-68
2021/05/04 00:53:21;;;;;;;8.03;7.17;;;;;;;3.37;84.54;97670.75;5041154;28;20224;-68
2021/05/04 00:55:48;;;;;;;7.50;6.87;;;;;;;3.33;83.94;97676.22;5043989;28;20226;-68
2021/05/04 00:58:15;;;;;;;7.33;6.73;;;;;;;3.28;84.61;97673.16;5044121;28;20211;-68
2021/05/04 01:00:42;;;;;;;7.37;6.77;;;;;;;3.31;84.52;97664.25;5040935;28;20566;-68
2021/05/04 01:03:10;;;;;;;7.60;7.10;;;;;;;3.33;83.21;97665.75;5044373;28;20223;-68
2021/05/04 01:05:38;;;;;;;8.97;7.97;;;;;;;3.34;83.85;97661.38;5043550;28;20218;-68
2021/05/04 01:08:06;;;;;;;7.37;6.77;;;;;;;3.42;83.75;97664.19;5041528;28;20204;-69
2021/05/04 01:10:33;;;;;;;10.27;7.30;;;;;;;3.30;83.76;97652.91;5041794;28;20224;-68
2021/05/04 01:13:00;;;;;;;7.53;7.03;;;;;;;3.37;83.57;97649.78;5039659;28;20227;-68
2021/05/04 01:15:28;;;;;;;10.10;7.27;;;;;;;3.43;83.33;97655.34;5042415;28;20218;-68
2021/05/04 01:17:56;;;;;;;8.50;7.73;;;;;;;3.45;82.63;97642.97;5040643;28;20203;-68
2021/05/04 01:20:23;;;;;;;7.90;7.20;;;;;;;3.43;83.71;97631.78;5040732;28;20210;-67
2021/05/04 01:22:52;;;;;;;6.70;6.17;;;;;;;3.42;82.96;97632.75;5041024;28;20253;-68
2021/05/04 01:25:19;;;;;;;7.67;6.97;;;;;;;3.39;83.06;97633.00;5038956;28;20768;-69
2021/05/04 01:27:46;;;;;;;7.30;6.70;;;;;;;3.37;84.06;97628.81;5040528;28;20241;-68
2021/05/04 01:30:14;;;;;;;7.77;7.07;;;;;;;3.44;82.83;97630.00;5040843;28;20223;-68
2021/05/04 01:32:41;;;;;;;6.90;6.40;;;;;;;3.35;83.44;97628.13;5040646;28;20250;-69
2021/05/04 01:35:10;;;;;;;7.20;6.60;;;;;;;3.36;84.37;97620.16;5042482;28;20212;-69
2021/05/04 01:37:43;;;;;;;7.40;6.80;;;;;;;3.46;83.55;97622.84;5041307;28;20216;-69
2021/05/04 01:40:14;;;;;;;7.77;7.00;;;;;;;3.37;83.43;97623.59;5038720;28;20197;-69
2021/05/04 01:42:44;;;;;;;7.60;6.70;;;;;;;3.42;83.61;97611.78;5041173;28;20232;-69
2021/05/04 01:45:12;;;;;;;7.07;6.47;;;;;;;3.40;83.64;97616.31;5038874;28;20204;-68
2021/05/04 01:47:39;;;;;;;7.07;6.57;;;;;;;3.43;83.27;97617.88;5041844;28;20231;-67
2021/05/04 01:50:07;;;;;;;7.63;6.93;;;;;;;3.43;83.26;97608.19;5038676;28;20246;-69
2021/05/04 01:52:35;;;;;;;7.10;6.53;;;;;;;3.40;83.12;97607.63;5041201;28;20228;-68
2021/05/04 01:55:03;;;;;;;8.27;7.47;;;;;;;3.45;83.47;97598.44;5037590;28;20684;-68
2021/05/04 01:57:31;;;;;;;7.97;7.27;;;;;;;3.41;82.54;97590.94;5043154;28;20208;-68
2021/05/04 01:59:58;;;;;;;8.47;7.67;;;;;;;3.52;82.67;97587.41;5040082;28;20203;-67
2021/05/04 02:02:25;;;;;;;7.13;6.47;;;;;;;3.44;83.62;97593.31;5042681;28;20604;-68
2021/05/04 02:04:53;;;;;;;7.10;6.60;;;;;;;3.51;82.82;97588.38;5043279;28;20298;-68
2021/05/04 02:07:20;;;;;;;7.33;6.73;;;;;;;3.54;82.35;97585.50;5041213;28;20242;-68
2021/05/04 02:09:47;;;;;;;7.13;6.63;;;;;;;3.41;82.81;97578.69;5040599;28;20235;-69
2021/05/04 02:12:14;;;;;;;7.50;6.90;;;;;;;3.54;81.99;97567.16;5042196;28;20231;-68
2021/05/04 02:14:42;;;;;;;7.97;7.30;;;;;;;3.48;82.00;97560.66;5041340;28;20229;-68
2021/05/04 02:17:09;;;;;;;7.77;7.00;;;;;;;3.41;82.41;97557.72;5040066;28;20208;-68
2021/05/04 02:19:37;;;;;;;7.93;7.13;;;;;;;3.45;82.36;97564.38;5043402;28;20214;-70
2021/05/04 02:22:05;;;;;;;7.03;6.43;;;;;;;3.27;83.24;97558.88;5040418;28;20228;-68
2021/05/04 02:24:32;;;;;;;6.63;6.13;;;;;;;3.32;83.14;97555.88;5037039;28;20200;-68
2021/05/04 02:26:59;;;;;;;7.43;6.83;;;;;;;3.36;83.71;97556.44;5040996;28;20207;-68
2021/05/04 02:29:26;;;;;;;7.63;7.03;;;;;;;3.38;82.93;97549.28;5040809;28;20200;-68
2021/05/04 02:31:53;;;;;;;7.13;6.53;;;;;;;3.27;83.25;97545.78;5038200;28;20351;-68
2021/05/04 02:34:21;;;;;;;7.83;7.10;;;;;;;3.26;84.00;97538.06;5042020;28;20215;-68
2021/05/04 02:36:48;;;;;;;7.30;6.70;;;;;;;3.36;82.91;97531.09;5038974;28;20346;-69
2021/05/04 02:39:15;;;;;;;6.70;6.17;;;;;;;3.21;84.04;97530.59;5037555;28;20568;-68
2021/05/04 02:41:42;;;;;;;6.83;6.33;;;;;;;3.10;84.36;97528.06;5033672;28;20289;-69
2021/05/04 02:44:09;;;;;;;7.27;6.67;;;;;;;3.18;83.96;97523.81;5037791;28;20231;-68
2021/05/04 02:46:36;;;;;;;7.87;7.27;;;;;;;3.21;84.56;97521.91;5040901;28;20199;-73
2021/05/04 02:49:04;;;;;;;7.73;7.13;;;;;;;3.15;84.27;97516.22;5030691;28;20215;-71
2021/05/04 02:51:31;;;;;;;7.30;6.70;;;;;;;3.07;84.94;97520.47;5029262;28;20234;-70
2021/05/04 02:53:58;;;;;;;7.27;6.70;;;;;;;3.06;85.17;97508.31;5036676;28;20219;-69
2021/05/04 02:56:25;;;;;;;7.47;6.97;;;;;;;3.21;83.61;97512.25;5037340;28;20213;-71
2021/05/04 02:58:52;;;;;;;6.23;5.80;;;;;;;3.13;84.17;97509.47;5038794;28;20211;-71
2021/05/04 03:01:20;;;;;;;7.53;6.83;;;;;;;3.12;83.96;97506.00;5035353;28;20233;-71
2021/05/04 03:03:47;;;;;;;6.87;6.37;;;;;;;3.09;84.30;97500.22;5032389;28;20292;-71
2021/05/04 03:06:15;;;;;;;7.03;6.53;;;;;;;3.13;84.65;97502.44;5038858;28;20210;-70
2021/05/04 03:08:42;;;;;;;6.67;6.07;;;;;;;3.14;83.77;97501.47;5040805;28;20215;-70
2021/05/04 03:11:09;;;;;;;8.37;5.77;;;;;;;3.16;82.91;97499.56;5040747;28;20222;-71
2021/05/04 03:13:36;;;;;;;6.93;6.33;;;;;;;3.09;83.11;97501.03;5036861;28;20223;-71
2021/05/04 03:16:03;;;;;;;7.07;6.47;;;;;;;3.08;82.80;97494.13;5038719;28;20361;-70
2021/05/04 03:18:30;;;;;;;7.07;6.37;;;;;;;3.08;84.23;97494.13;5040919;28;20326;-70
2021/05/04 03:20:58;;;;;;;6.17;5.67;;;;;;;3.08;83.73;97490.69;5035806;28;20211;-69
2021/05/04 03:23:25;;;;;;;5.83;5.43;;;;;;;3.05;83.76;97491.78;5039240;28;20232;-71
2021/05/04 03:25:52;;;;;;;7.17;6.57;;;;;;;2.99;83.53;97492.28;5036595;28;20212;-71
2021/05/04 03:28:20;;;;;;;6.70;6.20;;;;;;;2.93;83.61;97488.38;5040524;28;20208;-71
2021/05/04 03:30:47;;;;;;;6.70;6.20;;;;;;;2.87;83.53;97487.13;5031720;28;20719;-71
2021/05/04 03:33:14;;;;;;;7.00;6.50;;;;;;;2.80;84.82;97477.28;5038594;28;20319;-72
2021/05/04 03:35:42;;;;;;;6.83;6.23;;;;;;;2.90;84.29;97478.19;5039110;28;20208;-72
2021/05/04 03:38:09;;;;;;;7.07;6.37;;;;;;;2.96;84.38;97476.84;5035557;28;20533;-72
2021/05/04 03:40:37;;;;;;;6.83;6.33;;;;;;;2.86;84.15;97476.78;5038022;28;20633;-70
2021/05/04 03:43:04;;;;;;;7.23;6.53;;;;;;;2.98;83.89;97472.31;5029560;28;20228;-72
2021/05/04 03:45:31;;;;;;;7.03;6.43;;;;;;;2.82;84.72;97470.16;5037439;28;20208;-72
2021/05/04 03:47:58;;;;;;;7.00;6.40;;;;;;;2.79;83.83;97463.38;5036450;28;20214;-70
2021/05/04 03:50:27;;;;;;;6.83;6.33;;;;;;;2.79;84.82;97459.94;5035767;28;20235;-72
2021/05/04 03:52:56;;;;;;;7.30;6.63;;;;;;;2.80;84.51;97459.78;5039017;28;20228;-72
2021/05/04 03:55:23;;;;;;;7.00;6.37;;;;;;;2.80;85.00;97456.34;5042487;28;20204;-71
2021/05/04 03:57:51;;;;;;;8.03;7.27;;;;;;;2.79;84.86;97452.09;5045032;28;20676;-72
2021/05/04 04:00:19;;;;;;;7.13;6.17;;;;;;;2.89;84.59;97453.81;5043473;28;20439;-71
2021/05/04 04:02:46;;;;;;;7.37;6.77;;;;;;;3.00;84.24;97455.50;5063588;28;20227;-71
2021/05/04 04:05:13;;;;;;;7.27;6.70;;;;;;;2.96;83.83;97445.44;5062946;28;20591;-71
2021/05/04 04:07:40;;;;;;;6.83;6.20;;;;;;;3.07;83.58;97445.34;5060434;28;20200;-71
2021/05/04 04:10:09;;;;;;;7.17;6.60;;;;;;;3.04;83.91;97443.00;5062751;28;20235;-73
2021/05/04 04:12:36;;;;;;;7.23;6.60;;;;;;;3.04;83.67;97450.84;5061859;28;20238;-73
2021/05/04 04:15:05;;;;;;;6.73;6.23;;;;;;;3.20;83.61;97453.00;5060754;28;20475;-73
2021/05/04 04:17:32;;;;;;;7.97;7.27;;;;;;;3.18;84.65;97439.22;5058197;28;20207;-73
2021/05/04 04:19:59;;;;;;;7.20;6.60;;;;;;;3.45;82.13;97433.38;5064872;28;20198;-71
2021/05/04 04:22:26;;;;;;;6.50;6.10;;;;;;;3.57;82.17;97441.97;5059117;28;20223;-72
2021/05/04 04:24:54;;;;;;;6.70;6.13;;;;;;;3.60;82.79;97433.84;5060483;28;20471;-72
2021/05/04 04:27:21;;;;;;;7.90;6.60;;;;;;;3.70;81.46;97433.03;5061432;28;20225;-72
2021/05/04 04:29:49;;;;;;;6.40;5.80;;;;;;;3.90;80.89;97426.03;5060847;28;20215;-73
2021/05/04 04:32:17;;;;;;;7.23;6.63;;;;;;;3.94;80.93;97431.84;5055383;28;20737;-73
2021/05/04 04:34:44;;;;;;;6.97;6.47;;;;;;;4.12;80.68;97440.69;5064514;28;20211;-72
2021/05/04 04:37:11;;;;;;;6.50;5.97;;;;;;;4.30;79.59;97434.78;5062835;28;20199;-73
2021/05/04 04:39:39;;;;;;;6.60;6.07;;;;;;;4.50;80.62;97430.34;5062577;28;20598;-72
2021/05/04 04:42:06;;;;;;;7.67;6.50;;;;;;;4.72;80.98;97421.34;5063206;28;20470;-72
2021/05/04 04:44:33;;;;;;;7.10;6.40;;;;;;;4.71;77.76;97414.44;5059598;28;20206;-72
2021/05/04 04:47:01;;;;;;;7.73;6.57;;;;;;;4.90;76.63;97415.34;5062214;28;20238;-72
2021/05/04 04:49:29;;;;;;;10.53;7.50;;;;;;;5.26;81.28;97405.00;5061545;28;20207;-71
2021/05/04 04:51:56;;;;;;;7.13;6.43;;;;;;;5.22;75.49;97403.63;5064931;28;20457;-71
2021/05/04 04:54:23;;;;;;;6.67;6.17;;;;;;;5.20;74.00;97413.47;5063923;28;20203;-72
2021/05/04 04:56:50;;;;;;;7.17;6.47;;;;;;;5.35;75.69;97405.94;5062894;28;20214;-72
2021/05/04 04:59:17;;;;;;;7.63;6.93;;;;;;;5.54;74.85;97396.31;5061913;28;20210;-72
2021/05/04 05:01:44;;;;;;;7.53;6.93;;;;;;;5.67;72.82;97399.41;5060322;28;20210;-72
2021/05/04 05:04:11;;;;;;;7.33;6.63;;;;;;;5.70;72.37;97407.00;5061640;28;20698;-72
2021/05/04 05:06:39;;;;;;;6.57;5.87;;;;;;;5.94;73.29;97389.84;5063559;28;20209;-72
2021/05/04 05:09:08;;;;;;;9.47;6.40;;;;;;;6.04;72.14;97393.25;5060132;28;20495;-73
2021/05/04 05:11:35;;;;;;;7.73;6.93;;;;;;;6.28;71.64;97383.09;5059726;28;20607;-72
2021/05/04 05:14:04;;;;;;;6.73;6.17;;;;;;;6.47;70.39;97382.94;5058154;28;20230;-72
2021/05/04 05:16:31;;;;;;;8.00;7.30;;;;;;;6.62;70.17;97375.28;5061393;28;20671;-72
2021/05/04 05:18:58;;;;;;;9.67;7.03;;;;;;;6.71;69.53;97370.09;5059794;28;20242;-71
2021/05/04 05:21:25;;;;;;;7.90;7.30;;;;;;;7.00;68.47;97364.50;5063511;28;20629;-72
2021/05/04 05:23:54;;;;;;;6.40;5.80;;;;;;;7.13;67.68;97352.69;5061879;28;20235;-72
2021/05/04 05:26:24;;;;;;;6.70;6.10;;;;;;;7.21;67.39;97350.91;5059289;28;20206;-72
2021/05/04 05:28:53;;;;;;;6.87;6.30;;;;;;;7.31;67.15;97342.06;5059928;28;20218;-73
2021/05/04 05:31:20;;;;;;;6.10;5.60;;;;;;;7.50;66.17;97336.53;5058491;28;20583;-73
2021/05/04 05:33:48;;;;;;;6.53;5.93;;;;;;;7.49;65.40;97334.88;5059534;28;20475;-73
2021/05/04 05:36:15;;;;;;;5.93;5.50;;;;;;;7.72;65.43;97325.53;5061376;28;20614;-73
2021/05/04 05:38:42;;;;;;;6.10;5.70;;;;;;;7.70;64.69;97324.88;5063274;28;20219;-73
2021/05/04 05:41:10;;;;;;;5.93;5.43;;;;;;;7.83;64.13;97317.31;5061228;28;20218;-72
2021/05/04 05:43:37;;;;;;;6.30;5.80;;;;;;;7.93;64.12;97317.97;5061066;28;20329;-73
2021/05/04 05:46:04;;;;;;;6.83;5.90;;;;;;;7.84;64.20;97318.94;5063938;28;20207;-74
2021/05/04 05:48:31;;;;;;;5.37;4.97;;;;;;;7.94;63.51;97302.97;5062224;28;20285;-72
2021/05/04 05:50:58;;;;;;;5.70;5.30;;;;;;;7.88;64.41;97312.34;5062971;28;20234;-70
2021/05/04 05:53:25;;;;;;;5.60;5.20;;;;;;;7.98;64.42;97312.19;5061570;28;20231;-72
2021/05/04 05:55:52;;;;;;;5.27;4.90;;;;;;;8.04;63.75;97300.19;5062969;28;20207;-72
2021/05/04 05:58:20;;;;;;;5.50;5.10;;;;;;;8.03;64.73;97301.16;5062892;28;20579;-72
2021/05/04 06:00:47;;;;;;;5.07;4.70;;;;;;;8.04;64.23;97287.78;5063228;28;20233;-72
2021/05/04 06:03:14;;;;;;;5.83;5.33;;;;;;;8.09;64.07;97296.03;5062633;28;20222;-71
2021/05/04 06:05:41;;;;;;;5.43;5.00;;;;;;;8.11;64.49;97291.41;5059565;28;20211;-72
2021/05/04 06:08:08;;;;;;;5.53;5.13;;;;;;;8.26;64.15;97288.94;5060530;28;20206;-72
2021/05/04 06:10:35;;;;;;;6.07;5.67;;;;;;;8.14;64.08;97287.63;5059019;28;20233;-72
2021/05/04 06:13:05;;;;;;;5.30;5.00;;;;;;;8.32;63.64;97284.81;5061269;28;20276;-72
2021/05/04 06:15:34;;;;;;;5.63;5.23;;;;;;;8.35;63.25;97279.19;5058702;28;20625;-71
2021/05/04 06:18:01;;;;;;;5.20;4.73;;;;;;;8.50;62.68;97278.53;5060390;28;20206;-72
2021/05/04 06:20:28;;;;;;;5.13;4.20;;;;;;;8.52;62.74;97282.66;5061265;28;20858;-72
2021/05/04 06:22:55;;;;;;;4.90;4.60;;;;;;;8.64;61.96;97274.38;5062394;28;20276;-72
2021/05/04 06:25:22;;;;;;;5.20;4.80;;;;;;;8.69;61.79;97269.41;5060810;28;20210;-72
2021/05/04 06:27:49;;;;;;;5.13;4.63;;;;;;;8.75;62.03;97259.97;5056698;28;20199;-71
2021/05/04 06:30:17;;;;;;;5.00;4.70;;;;;;;8.78;61.69;97267.56;5060452;28;20229;-71
2021/05/04 06:32:46;;;;;;;5.57;5.03;;;;;;;8.78;61.07;97275.50;5054564;28;20230;-72
2021/05/04 06:35:17;;;;;;;7.77;4.83;;;;;;;8.85;60.79;97254.50;5059494;28;20221;-72
2021/05/04 06:37:44;;;;;;;4.50;4.20;;;;;;;8.82;61.27;97258.31;5061873;28;20203;-72
2021/05/04 06:40:13;;;;;;;5.37;4.87;;;;;;;8.88;61.48;97262.91;5060094;28;20199;-72
2021/05/04 06:42:40;;;;;;;5.80;5.40;;;;;;;8.86;60.98;97259.59;5062381;28;20219;-70
2021/05/04 06:45:08;;;;;;;5.03;4.73;;;;;;;8.94;61.38;97267.53;5057784;28;20210;-72
2021/05/04 06:47:35;;;;;;;6.23;4.53;;;;;;;9.19;60.28;97253.38;5061816;28;20211;-71
2021/05/04 06:50:04;;;;;;;4.73;4.33;;;;;;;9.16;60.26;97251.06;5060097;28;20466;-72
2021/05/04 06:52:32;;;;;;;5.27;4.77;;;;;;;9.17;60.41;97248.25;5059631;28;20226;-72
2021/05/04 06:54:59;;;;;;;4.90;4.50;;;;;;;9.23;60.72;97244.09;5057409;28;20209;-72
2021/05/04 06:57:27;;;;;;;4.83;4.23;;;;;;;9.21;60.33;97251.38;5062116;28;20256;-72
2021/05/04 06:59:54;;;;;;;3.83;3.63;;;;;;;9.40;60.60;97247.47;5059897;28;20726;-72
2021/05/04 07:02:21;;;;;;;4.43;4.13;;;;;;;9.62;59.01;97232.59;5062609;28;20222;-72
2021/05/04 07:04:48;;;;;;;4.50;4.20;;;;;;;9.70;56.99;97229.88;5062608;28;20217;-72
2021/05/04 07:07:16;;;;;;;4.50;3.47;;;;;;;9.52;56.61;97245.25;5060452;28;20203;-73
2021/05/04 07:09:44;;;;;;;4.57;4.23;;;;;;;9.82;56.52;97235.59;5062303;28;20702;-73
2021/05/04 07:12:12;;;;;;;4.70;4.40;;;;;;;9.85;55.46;97224.63;5056529;28;20314;-73
2021/05/04 07:14:39;;;;;;;4.50;4.13;;;;;;;9.97;55.83;97230.34;5060216;28;20298;-72
2021/05/04 07:17:06;;;;;;;4.00;3.80;;;;;;;9.83;54.73;97246.97;5058012;28;20604;-73
2021/05/04 07:19:37;;;;;;;4.40;4.00;;;;;;;9.98;55.25;97239.09;5058417;28;20195;-73
2021/05/04 07:22:05;;;;;;;3.87;3.67;;;;;;;10.19;54.75;97227.81;5060054;28;20202;-73
2021/05/04 07:24:33;;;;;;;3.77;3.50;;;;;;;10.27;53.63;97216.31;5059355;28;20553;-73
2021/05/04 07:27:00;;;;;;;4.27;3.70;;;;;;;10.34;54.43;97211.94;5065921;28;20326;-72
2021/05/04 07:29:27;;;;;;;3.50;3.30;;;;;;;10.26;54.47;97223.47;5062422;28;20294;-73
2021/05/04 07:31:54;;;;;;;6.30;4.37;;;;;;;10.32;53.47;97226.38;5065338;28;20350;-73
2021/05/04 07:34:21;;;;;;;4.30;3.90;;;;;;;10.33;53.09;97217.44;5061209;28;20207;-71
2021/05/04 07:36:48;;;;;;;4.00;3.70;;;;;;;10.28;53.58;97218.81;5065467;28;20211;-72
2021/05/04 07:39:15;;;;;;;4.13;3.70;;;;;;;10.38;52.19;97188.56;5063718;28;20207;-71
2021/05/04 07:41:43;;;;;;;4.10;3.80;;;;;;;10.37;53.28;97208.13;5063920;28;20209;-72
2021/05/04 07:44:10;;;;;;;3.83;3.63;;;;;;;10.49;52.25;97204.03;5066123;28;20222;-72
2021/05/04 07:46:37;;;;;;;3.80;3.60;;;;;;;10.54;52.20;97204.28;5063462;28;20290;-71
2021/05/04 07:49:07;;;;;;;4.43;4.03;;;;;;;10.56;51.32;97202.28;5062688;28;20693;-73
2021/05/04 07:51:38;;;;;;;3.73;3.53;;;;;;;10.56;52.58;97194.34;5065336;28;20234;-72
2021/05/04 07:54:06;;;;;;;4.27;3.97;;;;;;;10.77;51.81;97202.53;5064341;28;20218;-72
2021/05/04 07:56:33;;;;;;;3.77;3.57;;;;;;;10.83;52.31;97202.63;5065917;28;20763;-71
2021/05/04 07:59:00;;;;;;;4.00;3.60;;;;;;;10.91;51.74;97190.28;5064634;28;20207;-71
2021/05/04 08:01:27;;;;;;;4.30;3.50;;;;;;;11.05;51.74;97202.69;5065619;28;20199;-70
2021/05/04 08:03:55;;;;;;;3.60;3.40;;;;;;;11.11;50.82;97177.25;5064992;28;20226;-71
2021/05/04 08:06:22;;;;;;;4.00;3.67;;;;;;;11.10;51.01;97194.16;5059025;28;20213;-69
2021/05/04 08:08:49;;;;;;;3.77;3.57;;;;;;;11.20;50.10;97193.88;5064791;28;20215;-71
2021/05/04 08:11:16;;;;;;;3.70;3.43;;;;;;;11.29;50.60;97188.28;5064746;28;20219;-71
2021/05/04 08:13:44;;;;;;;3.97;3.73;;;;;;;11.44;49.54;97168.81;5065222;28;20615;-70
2021/05/04 08:16:14;;;;;;;4.20;3.80;;;;;;;11.38;48.84;97182.84;5060727;28;20286;-71
2021/05/04 08:18:43;;;;;;;5.07;3.93;;;;;;;11.36;50.04;97185.66;5065669;28;20215;-70
2021/05/04 08:21:11;;;;;;;3.80;3.60;;;;;;;11.21;50.60;97183.09;5064253;28;20207;-71
2021/05/04 08:23:38;;;;;;;3.83;3.53;;;;;;;11.28;50.35;97183.13;5066254;28;20218;-72
2021/05/04 08:26:05;;;;;;;3.93;3.70;;;;;;;11.43;49.48;97169.81;5065334;28;20226;-71
2021/05/04 08:28:32;;;;;;;3.93;3.57;;;;;;;11.43;49.54;97170.66;5065625;28;20583;-71
2021/05/04 08:30:59;;;;;;;3.70;3.20;;;;;;;11.49;49.77;97166.41;5064498;28;20602;-70
2021/05/04 08:33:27;;;;;;;3.80;3.50;;;;;;;11.42;49.91;97171.66;5065017;28;20594;-71
2021/05/04 08:35:54;;;;;;;3.57;3.33;;;;;;;11.61;49.20;97153.44;5061474;28;20210;-72
2021/05/04 08:38:21;;;;;;;3.67;3.37;;;;;;;11.50;49.58;97157.44;5062040;28;20536;-72
2021/05/04 08:40:48;;;;;;;5.37;3.60;;;;;;;11.66;49.20;97152.88;5063909;28;20214;-70
2021/05/04 08:43:21;;;;;;;4.23;3.10;;;;;;;11.65;49.33;97148.59;5064754;28;20725;-72
2021/05/04 08:45:55;;;;;;;4.07;3.20;;;;;;;11.90;49.41;97145.50;5062908;28;20213;-70
2021/05/04 08:48:24;;;;;;;5.83;3.50;;;;;;;11.94;48.65;97147.59;5060394;28;20210;-71
2021/05/04 08:50:53;;;;;;;4.20;3.90;;;;;;;12.00;48.45;97136.22;5064556;28;20230;-70
2021/05/04 08:53:40;;;;;;;4.00;3.70;;;;;;;12.28;47.25;97135.38;5063440;28;20241;-71
2021/05/04 08:56:09;;;;;;;4.43;4.13;;;;;;;12.54;47.78;97133.88;5063944;28;20218;-70
2021/05/04 08:58:36;;;;;;;4.03;3.30;;;;;;;12.65;46.80;97124.47;5063677;28;20675;-70
2021/05/04 09:01:14;;;;;;;3.60;3.40;;;;;;;12.57;46.95;97125.50;5061845;28;20256;-72
2021/05/04 09:03:44;;;;;;;3.60;3.40;;;;;;;12.75;46.29;97121.47;5061216;28;20286;-72
2021/05/04 09:06:15;;;;;;;3.27;3.00;;;;;;;13.09;46.72;97124.22;5057833;28;20685;-72
2021/05/04 09:08:46;;;;;;;3.50;3.20;;;;;;;12.84;45.85;97116.78;5061696;28;20211;-70
2021/05/04 09:11:26;;;;;;;5.67;3.57;;;;;;;12.94;46.10;97111.09;5059903;28;20230;-71
2021/05/04 09:13:58;;;;;;;3.70;3.40;;;;;;;13.28;45.83;97115.44;5063341;28;20237;-71
2021/05/04 09:16:31;;;;;;;3.30;3.03;;;;;;;13.27;46.57;97105.03;5061150;28;20199;-70
2021/05/04 09:19:13;;;;;;;3.47;3.17;;;;;;;13.29;45.20;97105.63;5062482;28;20272;-71
2021/05/04 09:21:42;;;;;;;3.70;3.50;;;;;;;13.62;44.91;97096.03;5063699;28;20195;-70
2021/05/04 09:24:21;;;;;;;3.27;2.87;;;;;;;13.63;45.47;97103.00;5057576;28;20227;-71
2021/05/04 09:26:48;;;;;;;3.30;3.10;;;;;;;13.60;44.87;97090.91;5061866;28;20207;-71
2021/05/04 09:29:16;;;;;;;2.90;2.80;;;;;;;13.76;44.92;97097.66;5060189;28;20204;-71
2021/05/04 09:31:43;;;;;;;3.33;3.13;;;;;;;13.82;43.77;97075.53;5059650;28;20658;-72
2021/05/04 09:34:12;;;;;;;3.60;3.40;;;;;;;14.07;44.58;97085.53;5060797;28;20714;-73
2021/05/04 09:36:41;;;;;;;3.40;3.30;;;;;;;14.36;44.31;97077.22;5059631;28;20204;-73
2021/05/04 09:39:10;;;;;;;3.37;3.17;;;;;;;14.67;43.25;97063.16;5061079;28;20599;-73
2021/05/04 09:41:37;;;;;;;3.53;3.23;;;;;;;14.87;43.17;97070.25;5061768;28;20207;-72
2021/05/04 09:44:05;;;;;;;3.27;3.07;;;;;;;14.96;42.51;97063.63;5062441;28;20218;-73
2021/05/04 09:46:45;;;;;;;4.47;2.97;;;;;;;14.87;43.12;97065.75;5060866;28;20254;-72
2021/05/04 09:49:29;;;;;;;3.40;3.20;;;;;;;15.18;42.82;97063.28;5063014;28;20658;-72
2021/05/04 09:52:36;;;;;;;3.23;3.03;;;;;;;14.71;42.98;97063.56;5061568;28;20218;-71
2021/05/04 09:55:05;;;;;;;3.43;3.13;;;;;;;14.89;43.78;97054.84;5058671;28;20289;-71
2021/05/04 09:57:40;;;;;;;3.20;3.00;;;;;;;15.08;43.04;97054.97;5060614;28;20214;-72
2021/05/04 10:00:12;;;;;;;4.07;3.30;;;;;;;15.16;42.21;97052.84;5061679;28;20194;-72
2021/05/04 10:02:40;;;;;;;3.47;3.37;;;;;;;15.21;39.67;97044.19;5059367;28;20229;-72
2021/05/04 10:05:10;;;;;;;3.63;2.40;;;;;;;14.87;40.20;97040.91;5060984;28;20800;-73
2021/05/04 10:07:38;;;;;;;5.10;3.10;;;;;;;14.97;40.02;97051.13;5060642;28;20213;-72
2021/05/04 10:10:07;;;;;;;2.13;2.03;;;;;;;15.05;38.76;97050.84;5059921;28;20214;-72
2021/05/04 10:12:36;;;;;;;2.10;2.00;;;;;;;15.00;38.14;97030.19;5061589;28;20584;-72
2021/05/04 10:15:06;;;;;;;2.10;2.00;;;;;;;15.09;38.98;97038.72;5058919;28;20695;-72
2021/05/04 10:17:33;;;;;;;2.50;1.93;;;;;;;15.04;38.93;97033.22;5058920;28;20199;-72
2021/05/04 10:20:06;;;;;;;2.40;2.17;;;;;;;15.18;37.45;97025.94;5060316;28;20202;-72
2021/05/04 10:22:34;;;;;;;2.30;2.10;;;;;;;15.24;37.36;97038.41;5062001;28;20488;-72
2021/05/04 10:25:03;;;;;;;2.50;1.80;;;;;;;15.07;37.55;97015.97;5060366;28;20203;-72
2021/05/04 10:27:30;;;;;;;3.00;1.93;;;;;;;15.11;37.06;97031.31;5057163;28;20233;-71
2021/05/04 10:29:57;;;;;;;2.07;1.97;;;;;;;15.29;37.42;97017.22;5062286;28;20454;-72
2021/05/04 10:32:53;;;;;;;2.53;2.13;;;;;;;15.43;37.49;97022.47;5060768;28;20227;-72
2021/05/04 10:35:41;;;;;;;2.87;2.20;;;;;;;15.45;36.72;97015.84;5061927;28;20206;-72
2021/05/04 10:38:09;;;;;;;4.00;2.47;;;;;;;15.62;37.30;97013.44;5059420;28;20207;-72
2021/05/04 10:40:40;;;;;;;2.43;2.33;;;;;;;15.58;37.00;97014.91;5062935;28;20719;-72
2021/05/04 10:43:38;;;;;;;1.90;1.80;;;;;;;15.30;36.82;97013.50;5060097;28;21323;-72
2021/05/04 10:46:09;;;;;;;2.07;1.97;;;;;;;15.66;37.02;97015.66;5058443;28;20226;-71
2021/05/04 10:48:38;;;;;;;3.30;2.20;;;;;;;15.94;36.98;97007.19;5058861;28;20214;-72
2021/05/04 10:51:08;;;;;;;4.63;2.60;;;;;;;15.75;36.34;96992.97;5061875;28;20284;-72
2021/05/04 10:54:05;;;;;;;2.57;2.37;;;;;;;16.00;36.26;96992.94;5059990;28;20225;-70
2021/05/04 10:56:39;;;;;;;2.17;2.07;;;;;;;16.33;36.09;96997.06;5061062;28;20301;-72
2021/05/04 10:59:07;;;;;;;1.93;1.73;;;;;;;16.46;36.39;96990.69;5058739;28;20587;-71
2021/05/04 11:01:35;;;;;;;2.63;1.97;;;;;;;16.47;36.60;96999.56;5059364;28;20199;-72
2021/05/04 11:04:04;;;;;;;3.13;2.33;;;;;;;16.32;37.00;96989.25;5058831;28;20229;-72
2021/05/04 11:06:42;;;;;;;2.17;1.73;;;;;;;16.48;36.55;97014.56;5056591;28;20209;-72
2021/05/04 11:09:14;;;;;;;2.40;2.20;;;;;;;16.24;35.39;96987.69;5059561;28;20230;-72
2021/05/04 11:11:45;;;;;;;2.00;1.80;;;;;;;16.25;35.47;97010.72;5061521;28;20226;-72
2021/05/04 11:14:32;;;;;;;2.20;1.47;;;;;;;16.20;34.55;96989.19;5060392;28;20223;-72
2021/05/04 11:17:22;;;;;;;1.50;1.50;;;;;;;16.15;33.52;96995.22;5061660;28;20687;-71
2021/05/04 11:19:49;;;;;;;1.97;1.87;;;;;;;16.18;33.06;96993.94;5058265;28;21044;-72
2021/05/04 11:22:24;;;;;;;2.73;1.73;;;;;;;15.93;33.60;96994.88;5061721;28;20598;-71
2021/05/04 11:24:53;;;;;;;2.03;1.93;;;;;;;15.96;33.51;97002.44;5058291;28;20207;-73
2021/05/04 11:27:33;;;;;;;2.20;2.10;;;;;;;15.91;33.62;97000.44;5061034;28;20202;-71
2021/05/04 11:30:03;;;;;;;3.03;1.97;;;;;;;15.74;32.40;97007.38;5058418;28;20214;-71
2021/05/04 11:32:44;;;;;;;2.67;1.70;;;;;;;15.57;32.64;96999.13;5055897;28;20237;-71
2021/05/04 11:35:12;;;;;;;4.23;1.90;;;;;;;15.55;32.97;96996.66;5058207;28;20206;-72
2021/05/04 11:37:46;;;;;;;2.17;1.63;;;;;;;15.54;32.75;96997.69;5057963;28;20714;-71
2021/05/04 11:40:21;;;;;;;1.87;1.77;;;;;;;15.57;32.66;96991.91;5059962;28;20217;-72
2021/05/04 11:42:50;;;;;;;1.93;1.60;;;;;;;15.51;33.22;97000.81;5056342;28;20230;-71
2021/05/04 11:45:19;;;;;;;1.97;1.70;;;;;;;15.52;32.52;96996.28;5061203;28;20210;-71
2021/05/04 11:47:47;;;;;;;1.90;1.83;;;;;;;15.63;33.02;97004.38;5061495;28;20203;-71